Time;durP1;ratioP1;P1;durP2;ratioP2;P2;SDS_P1;SDS_P2;PMS_P1;PMS_P2;Temp;Humidity;BMP_temperature;BMP_pressure;BME280_temperature;BME280_humidity;BME280_pressure;Samples;Min_cycle;Max_cycle;Signal;HPM_P1;HPM_P2
2021/11/13 00:00:20;;;;;;;33.40;23.97;;;10.20;99.90;;;;;;5064986;28;20173;-83
2021/11/13 00:02:53;;;;;;;36.27;25.23;;;10.10;99.90;;;;;;5067218;28;20222;-83
2021/11/13 00:05:22;;;;;;;31.90;23.50;;;10.10;99.90;;;;;;5069046;28;20271;-84
2021/11/13 00:07:50;;;;;;;29.23;20.93;;;10.10;99.90;;;;;;5067022;28;20179;-85
2021/11/13 00:10:17;;;;;;;35.20;24.67;;;10.20;99.90;;;;;;5060994;28;20175;-84
2021/11/13 00:12:44;;;;;;;34.70;22.87;;;10.20;99.90;;;;;;5063418;28;20183;-84
2021/11/13 00:15:19;;;;;;;32.30;22.13;;;10.20;99.90;;;;;;5079790;28;20183;-85
2021/11/13 00:17:44;;;;;;;33.00;24.23;;;10.20;99.90;;;;;;5060750;28;20195;-83
2021/11/13 00:20:10;;;;;;;33.03;23.03;;;10.30;99.90;;;;;;5061772;28;20216;-85
2021/11/13 00:22:36;;;;;;;33.10;22.87;;;10.30;99.90;;;;;;5064374;28;20230;-83
2021/11/13 00:25:02;;;;;;;32.83;22.67;;;10.20;99.90;;;;;;5061143;28;20196;-84
2021/11/13 00:27:30;;;;;;;34.27;24.27;;;10.30;99.90;;;;;;5065424;28;20172;-84
2021/11/13 00:29:57;;;;;;;33.20;23.30;;;10.30;99.90;;;;;;5065868;28;20180;-84
2021/11/13 00:32:22;;;;;;;34.23;24.07;;;10.30;99.90;;;;;;5063911;28;20546;-85
2021/11/13 00:34:48;;;;;;;30.97;22.57;;;10.20;99.90;;;;;;5049959;28;20188;-83
2021/11/13 00:37:14;;;;;;;33.13;22.77;;;10.30;99.90;;;;;;5068084;28;20180;-83
2021/11/13 00:39:40;;;;;;;31.73;23.50;;;10.20;99.90;;;;;;5085857;28;20172;-85
2021/11/13 00:42:07;;;;;;;31.97;23.57;;;10.20;99.90;;;;;;5094485;28;20160;-82
2021/11/13 00:44:34;;;;;;;32.77;23.40;;;10.20;99.90;;;;;;5081069;28;20181;-83
2021/11/13 00:47:01;;;;;;;33.10;22.80;;;10.20;99.90;;;;;;5081440;28;20164;-81
2021/11/13 00:49:29;;;;;;;32.27;22.93;;;10.20;99.90;;;;;;5100580;28;20176;-82
2021/11/13 00:52:06;;;;;;;33.93;23.13;;;10.20;99.90;;;;;;5076652;28;20238;-84
2021/11/13 00:54:36;;;;;;;35.33;23.53;;;10.20;99.90;;;;;;5076778;28;20172;-84
2021/11/13 00:57:07;;;;;;;36.87;23.07;;;10.20;99.90;;;;;;5073286;28;20180;-84
2021/11/13 00:59:57;;;;;;;33.13;23.33;;;10.20;99.90;;;;;;5070322;28;20169;-84
2021/11/13 01:02:42;;;;;;;33.73;23.07;;;10.20;99.90;;;;;;5076952;28;20200;-84
2021/11/13 01:05:09;;;;;;;32.33;22.30;;;10.30;99.90;;;;;;5075804;28;20187;-85
2021/11/13 01:07:36;;;;;;;32.13;22.33;;;10.30;99.90;;;;;;5070889;28;20181;-84
2021/11/13 01:10:03;;;;;;;37.50;22.23;;;10.30;99.90;;;;;;5060520;28;20168;-85
2021/11/13 01:12:29;;;;;;;32.13;22.30;;;10.40;99.90;;;;;;5061164;28;20186;-84
2021/11/13 01:14:58;;;;;;;37.33;22.53;;;10.40;99.90;;;;;;5059229;28;20534;-85
2021/11/13 01:17:23;;;;;;;33.30;22.17;;;10.60;99.90;;;;;;5059623;28;20195;-85
2021/11/13 01:19:49;;;;;;;32.93;22.67;;;10.60;99.90;;;;;;5077242;28;20176;-83
2021/11/13 01:22:16;;;;;;;30.90;22.37;;;10.60;99.90;;;;;;5077730;28;20184;-83
2021/11/13 01:24:43;;;;;;;31.83;21.87;;;10.60;99.90;;;;;;5077278;28;20191;-85
2021/11/13 01:27:09;;;;;;;32.00;22.73;;;10.50;99.90;;;;;;5059483;28;20211;-84
2021/11/13 01:29:35;;;;;;;31.97;22.27;;;10.50;99.90;;;;;;5076950;28;20191;-84
2021/11/13 01:32:01;;;;;;;33.67;23.00;;;10.50;99.90;;;;;;5059624;28;20655;-84
2021/11/13 01:34:26;;;;;;;34.47;22.90;;;10.60;99.90;;;;;;5058747;28;20651;-85
2021/11/13 01:36:52;;;;;;;29.93;21.93;;;10.60;99.90;;;;;;5059055;28;20656;-84
2021/11/13 01:39:19;;;;;;;38.70;22.30;;;10.60;99.90;;;;;;5060105;28;20172;-83
2021/11/13 01:41:45;;;;;;;29.93;22.73;;;10.60;99.90;;;;;;5062619;28;20602;-85
2021/11/13 01:44:10;;;;;;;30.90;23.63;;;10.60;99.90;;;;;;5059836;28;20212;-84
2021/11/13 01:46:38;;;;;;;33.47;22.63;;;10.60;99.90;;;;;;5059451;28;20199;-84
2021/11/13 01:49:04;;;;;;;31.70;23.17;;;10.60;99.90;;;;;;5045042;28;20179;-83
2021/11/13 01:51:33;;;;;;;33.17;23.47;;;10.70;99.90;;;;;;5059613;28;20734;-83
2021/11/13 01:54:09;;;;;;;33.37;23.90;;;10.60;99.90;;;;;;5060756;28;20164;-84
2021/11/13 01:56:38;;;;;;;32.83;24.77;;;10.80;99.90;;;;;;5064712;28;20156;-82
2021/11/13 01:59:05;;;;;;;36.17;24.13;;;10.70;99.90;;;;;;5078022;28;20179;-84
2021/11/13 02:01:31;;;;;;;34.47;24.67;;;10.80;99.90;;;;;;5079560;28;20191;-82
2021/11/13 02:04:00;;;;;;;32.63;22.67;;;11.00;99.90;;;;;;5079624;28;20227;-83
2021/11/13 02:06:27;;;;;;;33.80;23.43;;;10.80;99.90;;;;;;5078712;28;20167;-83
2021/11/13 02:08:55;;;;;;;30.70;23.30;;;10.90;99.90;;;;;;5076570;28;20176;-83
2021/11/13 02:11:24;;;;;;;36.83;22.20;;;10.80;99.90;;;;;;5074821;28;20199;-82
2021/11/13 02:13:54;;;;;;;31.93;23.67;;;11.10;99.90;;;;;;5064009;28;20218;-85
2021/11/13 02:16:20;;;;;;;28.27;21.73;;;11.00;99.90;;;;;;5076945;28;20210;-84
2021/11/13 02:18:46;;;;;;;30.70;23.27;;;11.00;99.90;;;;;;5075960;28;20172;-84
2021/11/13 02:21:12;;;;;;;32.10;22.27;;;11.00;99.90;;;;;;5058984;28;20195;-84
2021/11/13 02:23:40;;;;;;;30.17;20.90;;;11.00;99.90;;;;;;5064365;28;20731;-83
2021/11/13 02:26:05;;;;;;;28.53;21.37;;;11.10;99.90;;;;;;5060597;28;20283;-83
2021/11/13 02:28:35;;;;;;;28.17;20.13;;;11.00;99.90;;;;;;5057200;28;20267;-83
2021/11/13 02:31:03;;;;;;;29.13;19.27;;;11.10;99.90;;;;;;5041862;28;20180;-84
2021/11/13 02:33:31;;;;;;;24.43;17.37;;;11.10;99.90;;;;;;5057451;28;20632;-84
2021/11/13 02:35:57;;;;;;;24.53;17.73;;;11.10;99.90;;;;;;5057423;28;20705;-85
2021/11/13 02:38:35;;;;;;;23.87;17.30;;;11.10;99.90;;;;;;5056882;28;20263;-84
2021/11/13 02:41:05;;;;;;;23.13;17.00;;;11.10;99.90;;;;;;5057136;28;20612;-85
2021/11/13 02:43:33;;;;;;;23.77;17.53;;;11.20;99.90;;;;;;5057475;28;20208;-84
2021/11/13 02:46:02;;;;;;;22.37;17.37;;;11.30;99.90;;;;;;5074670;28;20579;-84
2021/11/13 02:48:29;;;;;;;23.37;17.10;;;11.40;99.90;;;;;;5056830;28;20180;-84
2021/11/13 02:50:55;;;;;;;22.73;16.33;;;11.40;99.90;;;;;;5074968;28;20179;-85
2021/11/13 02:53:24;;;;;;;20.77;16.63;;;11.30;99.90;;;;;;5056755;28;20169;-83
2021/11/13 02:55:53;;;;;;;20.00;17.13;;;11.30;99.90;;;;;;5056516;28;20834;-83
2021/11/13 02:58:22;;;;;;;19.43;16.27;;;11.30;99.90;;;;;;5056716;28;20217;-83
2021/11/13 03:00:51;;;;;;;23.17;16.97;;;11.50;99.90;;;;;;5057939;28;20180;-85
2021/11/13 03:03:18;;;;;;;21.23;17.20;;;11.70;99.90;;;;;;5057361;28;20594;-85
2021/11/13 03:05:52;;;;;;;25.53;18.57;;;11.70;99.90;;;;;;5057198;28;20176;-84
2021/11/13 03:08:32;;;;;;;19.83;16.70;;;11.70;99.90;;;;;;5057186;28;20171;-85
2021/11/13 03:11:03;;;;;;;23.60;17.23;;;11.70;99.90;;;;;;5056802;28;20321;-85
2021/11/13 03:13:31;;;;;;;21.13;16.50;;;11.70;99.90;;;;;;5056905;28;20654;-85
2021/11/13 03:15:57;;;;;;;21.13;14.23;;;11.60;99.90;;;;;;5075563;28;20161;-85
2021/11/13 03:18:23;;;;;;;14.70;11.00;;;11.50;99.90;;;;;;5060876;28;20625;-85
2021/11/13 03:20:49;;;;;;;11.33;9.50;;;11.70;99.90;;;;;;5065627;28;20175;-85
2021/11/13 03:23:16;;;;;;;12.43;8.97;;;11.50;99.90;;;;;;5066853;28;20211;-85
2021/11/13 03:26:05;;;;;;;9.63;7.63;;;11.50;99.90;;;;;;5058966;28;20215;-84
2021/11/13 03:28:37;;;;;;;11.70;8.33;;;11.70;99.90;;;;;;5060654;28;20183;-85
2021/11/13 03:31:03;;;;;;;10.50;8.10;;;11.40;99.90;;;;;;5057636;28;20267;-85
2021/11/13 03:33:31;;;;;;;9.87;7.90;;;11.50;99.90;;;;;;5057646;28;20195;-85
2021/11/13 03:35:58;;;;;;;10.63;7.70;;;11.40;99.90;;;;;;5075222;28;20234;-86
2021/11/13 03:38:24;;;;;;;9.10;7.50;;;11.30;99.90;;;;;;5056828;28;20176;-85
2021/11/13 03:40:51;;;;;;;10.97;7.93;;;11.40;99.90;;;;;;5057621;28;20179;-84
2021/11/13 03:43:17;;;;;;;11.00;8.67;;;11.30;99.90;;;;;;5057212;28;20306;-84
2021/11/13 03:45:45;;;;;;;9.63;8.40;;;11.20;99.90;;;;;;5057267;28;20177;-84
2021/11/13 03:48:11;;;;;;;12.07;9.30;;;11.20;99.90;;;;;;5056970;28;20568;-84
2021/11/13 03:50:37;;;;;;;14.20;9.97;;;11.30;99.90;;;;;;5057923;28;20180;-84
2021/11/13 03:53:04;;;;;;;10.67;8.77;;;11.40;99.90;;;;;;5058534;28;20204;-84
2021/11/13 03:55:31;;;;;;;12.30;9.47;;;11.50;99.90;;;;;;5057672;28;20625;-84
2021/11/13 03:57:58;;;;;;;11.83;9.17;;;11.30;99.90;;;;;;5057871;28;20181;-85
2021/11/13 04:00:25;;;;;;;14.43;10.10;;;11.50;99.90;;;;;;5058543;28;20168;-84
2021/11/13 04:02:51;;;;;;;12.33;10.30;;;11.40;99.90;;;;;;5077183;28;20204;-84
2021/11/13 04:05:18;;;;;;;11.93;9.70;;;11.30;99.90;;;;;;5062874;28;20180;-84
2021/11/13 04:07:44;;;;;;;14.17;9.93;;;11.40;99.90;;;;;;5060172;28;20544;-83
2021/11/13 04:10:11;;;;;;;14.73;9.77;;;11.30;99.90;;;;;;5059399;28;20172;-84
2021/11/13 04:12:39;;;;;;;13.43;9.33;;;11.40;99.90;;;;;;5064395;28;20190;-84
2021/11/13 04:15:06;;;;;;;10.33;8.63;;;11.30;99.90;;;;;;5072713;28;20180;-83
2021/11/13 04:17:32;;;;;;;11.47;9.27;;;11.30;99.90;;;;;;5074740;28;20191;-84
2021/11/13 04:19:58;;;;;;;13.03;8.50;;;11.40;99.90;;;;;;5084121;28;20168;-84
2021/11/13 04:22:24;;;;;;;12.07;9.27;;;11.40;99.90;;;;;;5082668;28;20160;-84
2021/11/13 04:24:50;;;;;;;12.30;8.50;;;11.50;99.90;;;;;;5084363;28;20177;-84
2021/11/13 04:27:19;;;;;;;13.77;9.17;;;11.50;99.90;;;;;;5084229;28;20159;-82
2021/11/13 04:30:14;;;;;;;12.27;8.97;;;11.40;99.90;;;;;;5084664;28;20176;-83
2021/11/13 04:32:43;;;;;;;9.83;7.77;;;11.40;99.90;;;;;;5070036;28;20218;-85
2021/11/13 04:35:16;;;;;;;8.33;7.07;;;11.50;99.90;;;;;;5063764;28;20233;-84
2021/11/13 04:37:55;;;;;;;12.87;8.77;;;11.40;99.90;;;;;;5060045;28;20222;-84
2021/11/13 04:40:29;;;;;;;8.83;7.67;;;11.40;99.90;;;;;;5059510;28;20266;-85
2021/11/13 04:42:57;;;;;;;9.93;7.57;;;11.40;99.90;;;;;;5058302;28;20205;-85
2021/11/13 04:45:23;;;;;;;9.93;7.40;;;11.50;99.90;;;;;;5076482;28;20168;-85
2021/11/13 04:47:49;;;;;;;12.77;7.37;;;11.30;99.90;;;;;;5058837;28;20168;-83
2021/11/13 04:50:18;;;;;;;8.40;6.77;;;11.40;99.90;;;;;;5042247;28;20507;-84
2021/11/13 04:52:45;;;;;;;7.87;6.40;;;11.40;99.90;;;;;;5058315;28;20176;-84
2021/11/13 04:55:13;;;;;;;7.27;6.50;;;11.50;99.90;;;;;;5058608;28;20173;-84
2021/11/13 04:57:39;;;;;;;9.87;7.20;;;11.40;99.90;;;;;;5058866;28;20179;-85
2021/11/13 05:00:08;;;;;;;9.27;6.70;;;11.40;99.90;;;;;;5058354;28;20687;-84
2021/11/13 05:02:34;;;;;;;10.07;7.73;;;11.50;99.90;;;;;;5057618;28;20196;-84
2021/11/13 05:04:59;;;;;;;10.03;7.53;;;11.50;99.90;;;;;;5060934;28;20205;-83
2021/11/13 05:07:25;;;;;;;9.53;7.40;;;11.50;99.90;;;;;;5058452;28;20633;-84
2021/11/13 05:09:54;;;;;;;9.70;8.30;;;11.50;99.90;;;;;;5058832;28;20180;-84
2021/11/13 05:12:20;;;;;;;9.73;8.23;;;11.50;99.90;;;;;;5059817;28;20625;-84
2021/11/13 05:14:46;;;;;;;11.63;8.37;;;11.70;99.90;;;;;;5060087;28;20177;-84
2021/11/13 05:17:12;;;;;;;11.97;8.43;;;11.90;99.90;;;;;;5059914;28;20184;-83
2021/11/13 05:19:38;;;;;;;11.57;8.67;;;11.70;99.90;;;;;;5045738;28;20230;-83
2021/11/13 05:22:06;;;;;;;10.37;8.03;;;11.70;99.90;;;;;;5060014;28;20172;-85
2021/11/13 05:24:31;;;;;;;10.10;8.33;;;11.70;99.90;;;;;;5059353;28;20251;-84
2021/11/13 05:26:57;;;;;;;17.33;9.50;;;11.60;99.90;;;;;;5058987;28;20183;-84
2021/11/13 05:29:23;;;;;;;12.90;9.00;;;11.60;99.90;;;;;;5059627;28;20172;-84
2021/11/13 05:31:49;;;;;;;10.33;7.70;;;11.70;99.90;;;;;;5059987;28;20172;-84
2021/11/13 05:34:14;;;;;;;10.17;8.07;;;11.50;99.90;;;;;;5060646;28;20665;-85
2021/11/13 05:36:41;;;;;;;11.73;8.30;;;11.40;99.90;;;;;;5060085;28;20171;-84
2021/11/13 05:39:07;;;;;;;10.67;7.57;;;11.40;99.90;;;;;;5074396;28;20191;-83
2021/11/13 05:41:33;;;;;;;10.20;7.63;;;11.50;99.90;;;;;;5080304;28;20164;-82
2021/11/13 05:43:59;;;;;;;8.87;7.33;;;11.50;99.90;;;;;;5081317;28;20231;-83
2021/11/13 05:46:25;;;;;;;13.90;7.80;;;11.60;99.90;;;;;;5081443;28;20188;-84
2021/11/13 05:48:54;;;;;;;11.40;7.70;;;11.60;99.90;;;;;;5078026;28;20679;-85
2021/11/13 05:51:23;;;;;;;9.07;7.27;;;11.60;99.90;;;;;;5077611;28;20156;-84
2021/11/13 05:53:51;;;;;;;10.57;7.30;;;11.50;99.90;;;;;;5077819;28;20183;-83
2021/11/13 05:56:20;;;;;;;11.03;7.03;;;11.50;99.90;;;;;;5059462;28;20203;-84
2021/11/13 05:58:49;;;;;;;9.63;7.33;;;11.50;99.90;;;;;;5076394;28;20160;-85
2021/11/13 06:01:15;;;;;;;11.33;7.23;;;11.70;99.90;;;;;;5057931;28;20225;-85
2021/11/13 06:03:40;;;;;;;11.93;7.53;;;11.70;99.90;;;;;;5057680;28;20203;-85
2021/11/13 06:06:06;;;;;;;10.47;7.10;;;11.70;99.90;;;;;;5057061;28;20536;-84
2021/11/13 06:08:33;;;;;;;15.10;7.80;;;11.70;99.90;;;;;;5060128;28;20172;-84
2021/11/13 06:10:59;;;;;;;10.10;7.90;;;11.70;99.90;;;;;;5061703;28;20172;-84
2021/11/13 06:13:25;;;;;;;11.23;8.30;;;11.70;99.90;;;;;;5057765;28;20255;-85
2021/11/13 06:15:52;;;;;;;11.10;7.97;;;11.70;99.90;;;;;;5075826;28;20253;-84
2021/11/13 06:18:18;;;;;;;12.37;7.60;;;11.60;99.90;;;;;;5059231;28;20651;-84
2021/11/13 06:20:43;;;;;;;12.37;8.43;;;11.60;99.90;;;;;;5060131;28;20172;-83
2021/11/13 06:23:10;;;;;;;10.37;8.20;;;11.80;99.90;;;;;;5064421;28;20566;-84
2021/11/13 06:25:36;;;;;;;11.67;7.87;;;11.80;99.90;;;;;;5063167;28;20185;-86
2021/11/13 06:28:03;;;;;;;10.97;8.47;;;11.80;99.90;;;;;;5076452;28;20214;-85
2021/11/13 06:30:30;;;;;;;10.57;7.50;;;11.70;99.90;;;;;;5057407;28;20172;-86
2021/11/13 06:32:55;;;;;;;13.07;8.17;;;11.70;99.90;;;;;;5057443;28;20187;-84
2021/11/13 06:35:21;;;;;;;10.43;7.80;;;11.70;99.90;;;;;;5075755;28;20171;-84
2021/11/13 06:37:47;;;;;;;14.27;8.80;;;11.70;99.90;;;;;;5057843;28;20180;-84
2021/11/13 06:40:15;;;;;;;13.13;9.00;;;11.80;99.90;;;;;;5057906;28;20685;-84
2021/11/13 06:42:41;;;;;;;12.43;9.10;;;11.90;99.90;;;;;;5056484;28;20200;-84
2021/11/13 06:45:10;;;;;;;13.97;8.97;;;12.00;99.90;;;;;;5056801;28;20207;-83
2021/11/13 06:47:37;;;;;;;12.30;8.80;;;12.00;99.90;;;;;;5057066;28;20168;-84
2021/11/13 06:50:04;;;;;;;12.07;8.50;;;12.00;99.90;;;;;;5076485;28;20176;-83
2021/11/13 06:52:30;;;;;;;12.13;9.40;;;11.90;99.90;;;;;;5057557;28;20169;-84
2021/11/13 06:54:56;;;;;;;10.60;8.83;;;12.00;99.90;;;;;;5057300;28;20172;-84
2021/11/13 06:57:22;;;;;;;12.30;8.90;;;11.90;99.90;;;;;;5056819;28;20628;-85
2021/11/13 06:59:48;;;;;;;13.73;8.83;;;12.00;99.90;;;;;;5056734;28;20179;-83
2021/11/13 07:02:15;;;;;;;11.40;8.70;;;11.90;99.90;;;;;;5056745;28;20164;-85
2021/11/13 07:04:42;;;;;;;13.60;8.60;;;11.90;99.90;;;;;;5057811;28;20180;-85
2021/11/13 07:07:08;;;;;;;14.70;9.43;;;12.00;99.90;;;;;;5059071;28;20169;-83
2021/11/13 07:09:33;;;;;;;12.00;9.10;;;12.10;99.90;;;;;;5059058;28;20195;-84
2021/11/13 07:11:59;;;;;;;12.87;8.50;;;12.00;99.90;;;;;;5060164;28;20180;-83
2021/11/13 07:14:25;;;;;;;14.03;8.50;;;12.10;99.90;;;;;;5078989;28;20218;-85
2021/11/13 07:16:51;;;;;;;13.37;9.83;;;12.10;99.90;;;;;;5082803;28;20183;-84
2021/11/13 07:19:16;;;;;;;13.33;8.37;;;12.00;99.90;;;;;;5074418;28;20202;-84
2021/11/13 07:21:42;;;;;;;17.53;8.53;;;12.00;99.90;;;;;;5069177;28;20236;-83
2021/11/13 07:24:09;;;;;;;12.87;8.97;;;11.90;99.90;;;;;;5066278;28;20216;-83
2021/11/13 07:26:36;;;;;;;12.93;9.00;;;11.90;99.90;;;;;;5075770;28;20169;-83
2021/11/13 07:29:06;;;;;;;14.67;8.43;;;11.90;99.90;;;;;;5071689;28;20177;-83
2021/11/13 07:31:33;;;;;;;15.80;9.00;;;12.00;99.90;;;;;;5073780;28;20179;-83
2021/11/13 07:33:59;;;;;;;12.37;8.90;;;12.00;99.90;;;;;;5067171;28;20607;-83
2021/11/13 07:36:25;;;;;;;12.20;8.93;;;11.90;99.90;;;;;;5059013;28;20177;-84
2021/11/13 07:38:51;;;;;;;16.63;9.53;;;12.00;99.90;;;;;;5059188;28;20184;-83
2021/11/13 07:41:18;;;;;;;13.80;9.37;;;12.10;99.90;;;;;;5065844;28;20314;-84
2021/11/13 07:43:46;;;;;;;15.57;9.40;;;12.10;99.90;;;;;;5084233;28;20200;-83
2021/11/13 07:46:12;;;;;;;12.43;9.27;;;12.10;99.90;;;;;;5081195;27;20655;-85
2021/11/13 07:48:38;;;;;;;10.07;8.50;;;12.10;99.90;;;;;;5083086;28;20176;-84
2021/11/13 07:51:04;;;;;;;12.57;8.57;;;12.00;99.90;;;;;;5082958;28;20199;-84
2021/11/13 07:53:33;;;;;;;13.60;9.37;;;12.10;99.90;;;;;;5073273;28;20199;-83
2021/11/13 07:56:02;;;;;;;14.17;8.27;;;12.10;99.90;;;;;;5072802;28;20180;-84
2021/11/13 07:59:17;;;;;;;11.97;8.73;;;12.10;99.90;;;;;;5063524;28;20199;-84
2021/11/13 08:01:44;;;;;;;10.17;7.60;;;12.00;99.90;;;;;;5062542;28;20191;-84
2021/11/13 08:04:10;;;;;;;12.70;7.50;;;12.00;99.90;;;;;;5065295;28;20250;-85
2021/11/13 08:06:36;;;;;;;12.67;7.93;;;12.00;99.90;;;;;;5082688;28;20222;-84
2021/11/13 08:09:03;;;;;;;9.53;7.50;;;12.10;99.90;;;;;;5074670;28;20180;-84
2021/11/13 08:11:28;;;;;;;11.20;7.07;;;12.00;99.90;;;;;;5073776;28;20222;-86
2021/11/13 08:13:54;;;;;;;10.30;7.53;;;12.10;99.90;;;;;;5077790;28;20548;-82
2021/11/13 08:16:21;;;;;;;10.13;7.30;;;12.10;99.90;;;;;;5073125;28;20259;-83
2021/11/13 08:18:46;;;;;;;10.53;6.47;;;12.10;99.90;;;;;;5080702;28;20168;-83
2021/11/13 08:21:21;;;;;;;10.27;6.97;;;12.20;99.90;;;;;;5079679;28;20165;-83
2021/11/13 08:23:47;;;;;;;11.03;7.03;;;12.20;99.90;;;;;;5075319;28;20207;-84
2021/11/13 08:26:13;;;;;;;11.50;6.73;;;12.20;99.90;;;;;;5083198;28;20198;-84
2021/11/13 08:28:39;;;;;;;11.70;7.17;;;12.20;99.90;;;;;;5083113;28;20184;-84
2021/11/13 08:31:05;;;;;;;12.40;6.50;;;12.20;99.90;;;;;;5071249;28;20215;-84
2021/11/13 08:33:31;;;;;;;10.17;6.93;;;12.20;99.90;;;;;;5073162;28;20229;-85
2021/11/13 08:35:57;;;;;;;13.53;7.27;;;12.20;99.90;;;;;;5072925;28;20176;-83
2021/11/13 08:38:23;;;;;;;15.30;7.90;;;12.20;99.90;;;;;;5085903;28;20179;-84
2021/11/13 08:40:52;;;;;;;10.00;6.83;;;12.20;99.90;;;;;;5088970;28;20192;-84
2021/11/13 08:43:20;;;;;;;12.50;8.13;;;12.40;99.90;;;;;;5070765;28;20207;-84
2021/11/13 08:45:46;;;;;;;9.83;7.17;;;12.20;99.90;;;;;;5076555;28;20291;-85
2021/11/13 08:48:13;;;;;;;10.20;7.90;;;12.30;99.90;;;;;;5074278;28;20263;-85
2021/11/13 08:50:41;;;;;;;10.57;8.13;;;12.40;99.90;;;;;;5056307;28;20202;-84
2021/11/13 08:53:08;;;;;;;10.80;7.50;;;12.20;99.90;;;;;;5054828;28;20194;-82
2021/11/13 08:55:40;;;;;;;14.00;8.80;;;12.20;99.90;;;;;;5093362;28;20168;-83
2021/11/13 08:58:08;;;;;;;11.30;8.37;;;12.20;99.90;;;;;;5075339;28;20176;-84
2021/11/13 09:00:38;;;;;;;9.60;7.47;;;12.20;99.90;;;;;;5072486;28;20184;-83
2021/11/13 09:03:07;;;;;;;13.30;8.20;;;12.30;99.90;;;;;;5075490;28;20199;-84
2021/11/13 09:05:33;;;;;;;10.53;7.97;;;12.20;99.90;;;;;;5074658;28;20214;-85
2021/11/13 09:08:01;;;;;;;10.57;8.03;;;12.30;99.90;;;;;;5092372;28;20173;-85
2021/11/13 09:10:28;;;;;;;14.47;8.47;;;12.30;99.90;;;;;;5091358;28;20172;-83
2021/11/13 09:12:55;;;;;;;11.80;9.07;;;12.40;99.90;;;;;;5054965;28;20175;-85
2021/11/13 09:15:25;;;;;;;10.50;8.10;;;12.50;99.90;;;;;;5081274;28;20585;-85
2021/11/13 09:17:52;;;;;;;10.70;8.77;;;12.50;99.90;;;;;;5074253;28;20181;-85
2021/11/13 09:20:19;;;;;;;11.13;9.43;;;12.40;99.90;;;;;;5058558;28;20230;-83
2021/11/13 09:22:46;;;;;;;12.40;9.20;;;12.40;99.90;;;;;;5051509;28;20207;-84
2021/11/13 09:25:12;;;;;;;11.33;8.03;;;12.40;99.90;;;;;;5070728;28;20236;-87
2021/11/13 09:27:40;;;;;;;9.80;8.53;;;12.40;99.90;;;;;;5065856;28;20168;-85
2021/11/13 09:30:08;;;;;;;12.37;8.30;;;12.40;99.90;;;;;;5069913;28;20236;-85
2021/11/13 09:32:35;;;;;;;12.73;9.17;;;12.30;99.90;;;;;;5055845;28;20187;-85
2021/11/13 09:35:22;;;;;;;12.37;9.77;;;12.30;99.90;;;;;;5061181;28;20203;-83
2021/11/13 09:37:49;;;;;;;10.97;8.73;;;12.30;99.90;;;;;;5077591;28;20216;-82
2021/11/13 09:40:18;;;;;;;12.20;8.97;;;12.40;99.90;;;;;;5073750;28;20169;-82
2021/11/13 09:42:46;;;;;;;13.43;9.20;;;12.30;99.90;;;;;;5060194;28;20224;-82
2021/11/13 09:45:13;;;;;;;13.90;9.67;;;12.40;99.90;;;;;;5073943;28;20255;-87
2021/11/13 09:47:42;;;;;;;13.60;9.10;;;12.40;99.90;;;;;;5071613;28;20180;-83
2021/11/13 09:50:10;;;;;;;12.60;9.87;;;12.50;99.90;;;;;;5066784;28;20233;-84
2021/11/13 09:52:36;;;;;;;14.00;8.23;;;12.40;99.90;;;;;;5084686;28;20164;-86
2021/11/13 09:55:05;;;;;;;12.73;9.60;;;12.40;99.90;;;;;;5062327;28;20180;-85
2021/11/13 09:57:31;;;;;;;15.87;9.20;;;12.50;99.90;;;;;;5063595;28;20184;-85
2021/11/13 09:59:57;;;;;;;14.50;9.10;;;12.50;99.90;;;;;;5061409;28;20283;-84
2021/11/13 10:02:23;;;;;;;11.23;7.87;;;12.50;99.90;;;;;;5062043;28;20181;-83
2021/11/13 10:04:50;;;;;;;11.80;7.83;;;12.70;99.90;;;;;;5084709;28;20602;-84
2021/11/13 10:07:15;;;;;;;9.83;6.60;;;12.60;99.90;;;;;;5049894;28;20164;-83
2021/11/13 10:09:41;;;;;;;10.47;6.60;;;12.60;99.90;;;;;;5066771;28;20685;-82
2021/11/13 10:12:07;;;;;;;11.77;6.50;;;12.50;99.90;;;;;;5065969;28;20180;-84
2021/11/13 10:14:39;;;;;;;9.53;6.40;;;12.60;99.90;;;;;;5068352;28;20187;-82
2021/11/13 10:17:23;;;;;;;9.97;6.27;;;12.60;99.90;;;;;;5061592;28;20593;-86
2021/11/13 10:19:50;;;;;;;8.27;6.20;;;12.70;99.90;;;;;;5062948;28;20183;-83
2021/11/13 10:22:17;;;;;;;6.73;5.93;;;12.70;99.90;;;;;;5064290;28;20195;-84
2021/11/13 10:24:50;;;;;;;9.90;6.03;;;12.70;99.90;;;;;;5064422;28;20208;-83
2021/11/13 10:27:16;;;;;;;12.77;5.83;;;12.80;99.90;;;;;;5062462;28;20173;-83
2021/11/13 10:29:44;;;;;;;9.67;6.30;;;12.70;99.90;;;;;;5080705;28;20214;-82
2021/11/13 10:32:19;;;;;;;9.97;5.87;;;12.70;99.90;;;;;;5067506;28;20176;-83
2021/11/13 10:34:51;;;;;;;11.57;7.40;;;12.70;99.90;;;;;;5061162;28;20262;-83
2021/11/13 10:37:23;;;;;;;11.23;6.37;;;12.70;99.90;;;;;;5045806;28;20184;-82
2021/11/13 10:39:56;;;;;;;10.20;5.87;;;12.80;99.90;;;;;;5060300;28;20195;-84
2021/11/13 10:42:23;;;;;;;11.80;6.50;;;12.80;99.90;;;;;;5083465;28;20168;-84
2021/11/13 10:44:58;;;;;;;12.27;5.60;;;12.80;99.90;;;;;;5063686;28;20180;-85
2021/11/13 10:47:37;;;;;;;19.33;7.60;;;12.80;99.90;;;;;;5065812;28;20180;-84
2021/11/13 10:50:25;;;;;;;15.67;6.40;;;12.70;99.90;;;;;;5067278;28;20173;-83
2021/11/13 10:53:12;;;;;;;20.30;7.37;;;12.60;99.90;;;;;;5068559;28;20176;-85
2021/11/13 10:56:03;;;;;;;11.40;6.57;;;12.60;99.90;;;;;;5068368;28;20188;-86
2021/11/13 10:58:31;;;;;;;14.13;6.37;;;12.70;99.90;;;;;;5058370;28;20229;-83
2021/11/13 11:01:00;;;;;;;11.17;5.90;;;12.70;99.90;;;;;;5070147;28;20183;-85
2021/11/13 11:03:36;;;;;;;9.47;6.80;;;12.70;99.90;;;;;;5070221;28;20212;-85
2021/11/13 11:06:02;;;;;;;9.37;5.60;;;12.80;99.90;;;;;;5068515;28;20173;-83
2021/11/13 11:08:34;;;;;;;16.17;6.63;;;12.90;99.90;;;;;;5061666;28;20176;-82
2021/11/13 11:11:02;;;;;;;11.30;6.33;;;13.00;99.90;;;;;;5081604;28;20168;-84
2021/11/13 11:13:41;;;;;;;12.17;6.77;;;13.00;99.90;;;;;;5079803;28;20214;-83
2021/11/13 11:16:31;;;;;;;11.73;6.10;;;12.90;99.90;;;;;;5080148;28;20175;-83
2021/11/13 11:19:23;;;;;;;10.20;5.93;;;13.00;99.90;;;;;;5072862;28;20235;-83
2021/11/13 11:22:27;;;;;;;9.40;5.23;;;13.10;99.90;;;;;;5061096;28;20179;-84
2021/11/13 11:25:01;;;;;;;12.53;6.03;;;13.00;99.90;;;;;;5165616;22;20297;-85
2021/11/13 11:27:34;;;;;;;12.43;6.40;;;13.00;99.90;;;;;;5027700;28;20184;-84
2021/11/13 11:30:13;;;;;;;9.40;6.03;;;13.00;99.90;;;;;;5018130;28;20170;-85
2021/11/13 11:32:58;;;;;;;9.63;5.63;;;13.00;99.90;;;;;;5017146;28;20575;-84
2021/11/13 11:35:39;;;;;;;9.77;5.47;;;12.90;99.90;;;;;;5036208;28;20197;-84
2021/11/13 11:38:11;;;;;;;11.17;5.67;;;13.00;99.90;;;;;;5017850;28;20555;-84
2021/11/13 11:40:43;;;;;;;12.37;6.43;;;13.00;99.90;;;;;;5040719;28;20268;-84
2021/11/13 11:43:09;;;;;;;15.37;7.00;;;13.00;99.90;;;;;;5004172;28;20245;-84
2021/11/13 11:45:43;;;;;;;10.27;6.37;;;13.00;99.90;;;;;;5024188;28;20185;-84
2021/11/13 11:48:35;;;;;;;11.63;6.30;;;13.00;99.90;;;;;;5024878;28;20217;-86
2021/11/13 11:51:06;;;;;;;12.70;5.90;;;13.10;99.90;;;;;;5057608;28;20198;-84
2021/11/13 11:53:32;;;;;;;10.07;5.77;;;13.10;99.90;;;;;;5029684;28;20189;-84
2021/11/13 11:55:58;;;;;;;10.73;5.43;;;13.10;99.90;;;;;;5055126;28;20170;-83
2021/11/13 11:58:24;;;;;;;6.87;5.60;;;13.10;99.90;;;;;;5035863;28;20158;-84
2021/11/13 12:00:53;;;;;;;12.30;6.70;;;13.20;99.90;;;;;;5045495;28;20244;-85
2021/11/13 12:03:29;;;;;;;12.40;5.97;;;13.30;99.90;;;;;;5023784;28;20201;-84
2021/11/13 12:05:55;;;;;;;10.37;5.33;;;13.30;99.90;;;;;;5023039;28;20185;-83
2021/11/13 12:08:27;;;;;;;12.00;4.97;;;13.10;99.90;;;;;;5048184;28;20170;-85
2021/11/13 12:11:14;;;;;;;9.90;4.73;;;13.10;99.90;;;;;;5029372;28;20170;-83
2021/11/13 12:13:40;;;;;;;6.57;4.10;;;13.10;99.90;;;;;;5026018;28;20264;-84
2021/11/13 12:16:06;;;;;;;6.40;4.17;;;13.20;99.90;;;;;;5049899;28;20167;-82
2021/11/13 12:18:35;;;;;;;8.40;4.23;;;13.10;99.90;;;;;;5033776;28;20215;-84
2021/11/13 12:21:04;;;;;;;4.37;3.50;;;13.10;99.90;;;;;;5011518;28;20232;-84
2021/11/13 12:23:34;;;;;;;5.67;3.90;;;13.30;99.90;;;;;;5023630;28;20221;-85
2021/11/13 12:26:11;;;;;;;5.60;3.30;;;13.30;99.90;;;;;;5021144;28;20217;-83
2021/11/13 12:28:52;;;;;;;8.40;3.70;;;13.30;99.90;;;;;;5027820;28;20216;-85
2021/11/13 12:31:30;;;;;;;4.43;2.97;;;13.40;99.90;;;;;;5048185;28;20170;-83
2021/11/13 12:34:16;;;;;;;7.90;4.00;;;13.50;99.90;;;;;;5031800;28;20270;-85
2021/11/13 12:37:02;;;;;;;5.70;3.40;;;13.50;99.90;;;;;;5023976;28;20168;-83
2021/11/13 12:39:43;;;;;;;5.03;3.13;;;13.60;99.90;;;;;;5030294;28;20206;-86
2021/11/13 12:42:12;;;;;;;4.83;2.97;;;13.60;99.90;;;;;;5037488;28;20176;-86
2021/11/13 12:44:58;;;;;;;6.13;3.20;;;13.60;99.90;;;;;;5051101;28;20219;-85